PWSweather.com
Personal Weather Stations
Station Observations
BC052CD
On, Kemptville, ON K0G 1J0

OnKemptville, ON K0G 1J0

Lat: 45.0173179, Lon: -75.6329355

Elevation: 295

Station Type: National Geographic 265NC

http://kerrentweather.ca

High Low Average
Temperature 28.8°F-1.8°C 21.9°F-5.6°C 25.3°F-3.7°C
Dew Point 24.2°F-4.3°C 16.6°F-8.6°C 20.1°F-6.6°C
Winds 2.8 mph 4.5 kmh Calm Calm 1.0 mph N1.6 kmh N
Wind Gusts 6.7 mph10.8 kmh -- 3.0 mph4.8 kmh
Humidity 88% 77% 80%
Pressure 30.12 in1020.0 mb 30.06 in1017.9 mb -
Precipitation 0.00 in0.0 mm - -
Hour Temp Dew Point Humidity Winds Wind Gusts Pressure Precip Precip Rate Daily Precip Total
12:00 AM 21.9°F-5.6°C 17.0°F-8.3°C 81% 2.0 mph N3.2 kmh N 4.8 mph7.7 kmh 30.12 in1020.0 mb 0.00 in0.0 mm 0.00 in0.0 mm 0.00 in0.0 mm
12:15 AM 22.1°F-5.5°C 17.2°F-8.2°C 81% Calm Calm 3.9 mph6.3 kmh 30.12 in1020.0 mb 0.00 in0.0 mm 0.00 in0.0 mm 0.00 in0.0 mm
12:30 AM 22.1°F-5.5°C 17.2°F-8.2°C 81% 0.8 mph N1.3 kmh N 2.8 mph4.5 kmh 30.12 in1020.0 mb 0.00 in0.0 mm 0.00 in0.0 mm 0.00 in0.0 mm
12:45 AM 22.1°F-5.5°C 17.2°F-8.2°C 81% Calm Calm 2.0 mph3.2 kmh 30.12 in1020.0 mb 0.00 in0.0 mm 0.00 in0.0 mm 0.00 in0.0 mm
01:00 AM 22.3°F-5.4°C 17.4°F-8.1°C 81% Calm Calm 2.0 mph3.2 kmh 30.12 in1020.0 mb 0.00 in0.0 mm 0.00 in0.0 mm 0.00 in0.0 mm
01:15 AM 22.1°F-5.5°C 16.6°F-8.6°C 79% Calm Calm 0.8 mph1.3 kmh 30.12 in1020.0 mb 0.00 in0.0 mm 0.00 in0.0 mm 0.00 in0.0 mm
01:30 AM 22.3°F-5.4°C 16.8°F-8.4°C 79% Calm Calm 2.0 mph3.2 kmh 30.11 in1019.6 mb 0.00 in0.0 mm 0.00 in0.0 mm 0.00 in0.0 mm
01:45 AM 22.5°F-5.3°C 17.0°F-8.3°C 79% 2.0 mph N3.2 kmh N 2.8 mph4.5 kmh 30.11 in1019.6 mb 0.00 in0.0 mm 0.00 in0.0 mm 0.00 in0.0 mm
02:00 AM 22.5°F-5.3°C 17.0°F-8.3°C 79% Calm Calm 2.8 mph4.5 kmh 30.12 in1020.0 mb 0.00 in0.0 mm 0.00 in0.0 mm 0.00 in0.0 mm
02:15 AM 22.5°F-5.3°C 17.0°F-8.3°C 79% Calm Calm 3.9 mph6.3 kmh 30.12 in1020.0 mb 0.00 in0.0 mm 0.00 in0.0 mm 0.00 in0.0 mm
02:30 AM 22.6°F-5.2°C 17.1°F-8.3°C 79% Calm Calm 3.9 mph6.3 kmh 30.12 in1020.0 mb 0.00 in0.0 mm 0.00 in0.0 mm 0.00 in0.0 mm
02:45 AM 22.5°F-5.3°C 16.7°F-8.5°C 78% Calm Calm 2.0 mph3.2 kmh 30.11 in1019.6 mb 0.00 in0.0 mm 0.00 in0.0 mm 0.00 in0.0 mm
03:00 AM 22.5°F-5.3°C 16.7°F-8.5°C 78% Calm Calm 2.0 mph3.2 kmh 30.11 in1019.6 mb 0.00 in0.0 mm 0.00 in0.0 mm 0.00 in0.0 mm
03:15 AM 22.6°F-5.2°C 16.9°F-8.4°C 78% Calm Calm 3.9 mph6.3 kmh 30.11 in1019.6 mb 0.00 in0.0 mm 0.00 in0.0 mm 0.00 in0.0 mm
03:30 AM 22.6°F-5.2°C 16.9°F-8.4°C 78% Calm Calm 2.8 mph4.5 kmh 30.10 in1019.3 mb 0.00 in0.0 mm 0.00 in0.0 mm 0.00 in0.0 mm
03:45 AM 22.8°F-5.1°C 17.0°F-8.3°C 78% Calm Calm 3.9 mph6.3 kmh 30.10 in1019.3 mb 0.00 in0.0 mm 0.00 in0.0 mm 0.00 in0.0 mm
04:00 AM 22.6°F-5.2°C 16.9°F-8.4°C 78% Calm Calm 2.0 mph3.2 kmh 30.10 in1019.3 mb 0.00 in0.0 mm 0.00 in0.0 mm 0.00 in0.0 mm
04:15 AM 22.6°F-5.2°C 16.9°F-8.4°C 78% Calm Calm 3.9 mph6.3 kmh 30.09 in1019.0 mb 0.00 in0.0 mm 0.00 in0.0 mm 0.00 in0.0 mm
04:30 AM 22.6°F-5.2°C 16.6°F-8.6°C 77% 0.8 mph N1.3 kmh N 2.0 mph3.2 kmh 30.09 in1019.0 mb 0.00 in0.0 mm 0.00 in0.0 mm 0.00 in0.0 mm
04:45 AM 22.8°F-5.1°C 16.7°F-8.5°C 77% 2.0 mph N3.2 kmh N 3.9 mph6.3 kmh 30.09 in1019.0 mb 0.00 in0.0 mm 0.00 in0.0 mm 0.00 in0.0 mm
05:00 AM 22.8°F-5.1°C 16.7°F-8.5°C 77% Calm Calm 2.8 mph4.5 kmh 30.09 in1019.0 mb 0.00 in0.0 mm 0.00 in0.0 mm 0.00 in0.0 mm
05:15 AM 22.8°F-5.1°C 16.7°F-8.5°C 77% Calm Calm 2.0 mph3.2 kmh 30.10 in1019.3 mb 0.00 in0.0 mm 0.00 in0.0 mm 0.00 in0.0 mm
05:30 AM 23.0°F-5.0°C 16.9°F-8.4°C 77% Calm Calm 2.0 mph3.2 kmh 30.10 in1019.3 mb 0.00 in0.0 mm 0.00 in0.0 mm 0.00 in0.0 mm
05:45 AM 23.0°F-5.0°C 16.9°F-8.4°C 77% Calm Calm 2.0 mph3.2 kmh 30.10 in1019.3 mb 0.00 in0.0 mm 0.00 in0.0 mm 0.00 in0.0 mm
06:00 AM 23.0°F-5.0°C 16.9°F-8.4°C 77% Calm Calm 2.8 mph4.5 kmh 30.10 in1019.3 mb 0.00 in0.0 mm 0.00 in0.0 mm 0.00 in0.0 mm
06:15 AM 23.0°F-5.0°C 16.9°F-8.4°C 77% 0.8 mph N1.3 kmh N 2.0 mph3.2 kmh 30.10 in1019.3 mb 0.00 in0.0 mm 0.00 in0.0 mm 0.00 in0.0 mm
06:30 AM 23.0°F-5.0°C 16.9°F-8.4°C 77% Calm Calm 3.9 mph6.3 kmh 30.10 in1019.3 mb 0.00 in0.0 mm 0.00 in0.0 mm 0.00 in0.0 mm
06:45 AM 23.0°F-5.0°C 16.9°F-8.4°C 77% Calm Calm 2.0 mph3.2 kmh 30.10 in1019.3 mb 0.00 in0.0 mm 0.00 in0.0 mm 0.00 in0.0 mm
07:00 AM 23.0°F-5.0°C 16.9°F-8.4°C 77% Calm Calm 2.0 mph3.2 kmh 30.11 in1019.6 mb 0.00 in0.0 mm 0.00 in0.0 mm 0.00 in0.0 mm
07:15 AM 23.0°F-5.0°C 17.2°F-8.2°C 78% Calm Calm 2.0 mph3.2 kmh 30.11 in1019.6 mb 0.00 in0.0 mm 0.00 in0.0 mm 0.00 in0.0 mm
07:30 AM 23.0°F-5.0°C 16.9°F-8.4°C 77% Calm Calm 2.0 mph3.2 kmh 30.11 in1019.6 mb 0.00 in0.0 mm 0.00 in0.0 mm 0.00 in0.0 mm
07:45 AM 23.0°F-5.0°C 16.9°F-8.4°C 77% 0.8 mph N1.3 kmh N 2.8 mph4.5 kmh 30.11 in1019.6 mb 0.00 in0.0 mm 0.00 in0.0 mm 0.00 in0.0 mm
08:00 AM 23.0°F-5.0°C 17.2°F-8.2°C 78% 0.8 mph N1.3 kmh N 2.0 mph3.2 kmh 30.11 in1019.6 mb 0.00 in0.0 mm 0.00 in0.0 mm 0.00 in0.0 mm
08:15 AM 23.2°F-4.9°C 17.4°F-8.1°C 78% 2.0 mph N3.2 kmh N 4.8 mph7.7 kmh 30.11 in1019.6 mb 0.00 in0.0 mm 0.00 in0.0 mm 0.00 in0.0 mm
08:30 AM 23.4°F-4.8°C 17.8°F-7.9°C 79% Calm Calm 2.8 mph4.5 kmh 30.11 in1019.6 mb 0.00 in0.0 mm 0.00 in0.0 mm 0.00 in0.0 mm
08:45 AM 23.5°F-4.7°C 18.0°F-7.8°C 79% 2.0 mph N3.2 kmh N 4.8 mph7.7 kmh 30.10 in1019.3 mb 0.00 in0.0 mm 0.00 in0.0 mm 0.00 in0.0 mm
09:00 AM 23.7°F-4.6°C 18.2°F-7.7°C 79% 2.8 mph N4.5 kmh N 4.8 mph7.7 kmh 30.10 in1019.3 mb 0.00 in0.0 mm 0.00 in0.0 mm 0.00 in0.0 mm
09:15 AM 23.9°F-4.5°C 18.4°F-7.6°C 79% 2.0 mph N3.2 kmh N 5.6 mph9.0 kmh 30.10 in1019.3 mb 0.00 in0.0 mm 0.00 in0.0 mm 0.00 in0.0 mm
09:30 AM 24.3°F-4.3°C 18.7°F-7.4°C 79% 0.8 mph N1.3 kmh N 3.9 mph6.3 kmh 30.11 in1019.6 mb 0.00 in0.0 mm 0.00 in0.0 mm 0.00 in0.0 mm
09:45 AM 24.8°F-4.0°C 19.2°F-7.1°C 79% 2.0 mph N3.2 kmh N 2.8 mph4.5 kmh 30.12 in1020.0 mb 0.00 in0.0 mm 0.00 in0.0 mm 0.00 in0.0 mm
10:00 AM 25.0°F-3.9°C 19.4°F-7.0°C 79% Calm Calm 3.9 mph6.3 kmh 30.11 in1019.6 mb 0.00 in0.0 mm 0.00 in0.0 mm 0.00 in0.0 mm
10:15 AM 25.3°F-3.7°C 19.5°F-6.9°C 78% 0.8 mph N1.3 kmh N 4.8 mph7.7 kmh 30.11 in1019.6 mb 0.00 in0.0 mm 0.00 in0.0 mm 0.00 in0.0 mm
10:30 AM 25.5°F-3.6°C 19.7°F-6.8°C 78% 0.8 mph N1.3 kmh N 4.8 mph7.7 kmh 30.11 in1019.6 mb 0.00 in0.0 mm 0.00 in0.0 mm 0.00 in0.0 mm
10:45 AM 25.9°F-3.4°C 20.0°F-6.7°C 78% 2.0 mph N3.2 kmh N 4.8 mph7.7 kmh 30.11 in1019.6 mb 0.00 in0.0 mm 0.00 in0.0 mm 0.00 in0.0 mm
11:00 AM 26.1°F-3.3°C 20.2°F-6.6°C 78% 0.8 mph N1.3 kmh N 5.6 mph9.0 kmh 30.10 in1019.3 mb 0.00 in0.0 mm 0.00 in0.0 mm 0.00 in0.0 mm
11:15 AM 26.4°F-3.1°C 20.5°F-6.4°C 78% 2.0 mph N3.2 kmh N 4.8 mph7.7 kmh 30.09 in1019.0 mb 0.00 in0.0 mm 0.00 in0.0 mm 0.00 in0.0 mm
11:30 AM 26.6°F-3.0°C 20.7°F-6.3°C 78% 0.8 mph N1.3 kmh N 4.8 mph7.7 kmh 30.09 in1019.0 mb 0.00 in0.0 mm 0.00 in0.0 mm 0.00 in0.0 mm
11:45 AM 26.8°F-2.9°C 20.9°F-6.2°C 78% 2.0 mph N3.2 kmh N 5.6 mph9.0 kmh 30.09 in1019.0 mb 0.00 in0.0 mm 0.00 in0.0 mm 0.00 in0.0 mm
12:00 PM 27.0°F-2.8°C 21.0°F-6.1°C 78% 0.8 mph N1.3 kmh N 6.7 mph10.8 kmh 30.09 in1019.0 mb 0.00 in0.0 mm 0.00 in0.0 mm 0.00 in0.0 mm
12:15 PM 27.0°F-2.8°C 21.0°F-6.1°C 78% 0.8 mph N1.3 kmh N 5.6 mph9.0 kmh 30.08 in1018.6 mb 0.00 in0.0 mm 0.00 in0.0 mm 0.00 in0.0 mm
12:30 PM 27.1°F-2.7°C 21.2°F-6.0°C 78% Calm Calm 4.8 mph7.7 kmh 30.08 in1018.6 mb 0.00 in0.0 mm 0.00 in0.0 mm 0.00 in0.0 mm
12:45 PM 27.3°F-2.6°C 21.7°F-5.7°C 79% Calm Calm 2.8 mph4.5 kmh 30.07 in1018.3 mb 0.00 in0.0 mm 0.00 in0.0 mm 0.00 in0.0 mm
01:00 PM 27.5°F-2.5°C 21.9°F-5.6°C 79% 0.8 mph N1.3 kmh N 3.9 mph6.3 kmh 30.07 in1018.3 mb 0.00 in0.0 mm 0.00 in0.0 mm 0.00 in0.0 mm
01:15 PM 27.7°F-2.4°C 22.0°F-5.6°C 79% Calm Calm 3.9 mph6.3 kmh 30.07 in1018.3 mb 0.00 in0.0 mm 0.00 in0.0 mm 0.00 in0.0 mm
01:30 PM 27.9°F-2.3°C 22.2°F-5.4°C 79% Calm Calm 3.9 mph6.3 kmh 30.07 in1018.3 mb 0.00 in0.0 mm 0.00 in0.0 mm 0.00 in0.0 mm
01:45 PM 28.0°F-2.2°C 22.4°F-5.3°C 79% 0.8 mph N1.3 kmh N 2.0 mph3.2 kmh 30.07 in1018.3 mb 0.00 in0.0 mm 0.00 in0.0 mm 0.00 in0.0 mm
02:00 PM 28.2°F-2.1°C 22.6°F-5.2°C 79% 0.8 mph N1.3 kmh N 2.8 mph4.5 kmh 30.07 in1018.3 mb 0.00 in0.0 mm 0.00 in0.0 mm 0.00 in0.0 mm
02:15 PM 28.2°F-2.1°C 22.6°F-5.2°C 79% Calm Calm 2.0 mph3.2 kmh 30.07 in1018.3 mb 0.00 in0.0 mm 0.00 in0.0 mm 0.00 in0.0 mm
02:30 PM 28.6°F-1.9°C 22.9°F-5.1°C 79% 0.8 mph N1.3 kmh N 2.8 mph4.5 kmh 30.07 in1018.3 mb 0.00 in0.0 mm 0.00 in0.0 mm 0.00 in0.0 mm
02:45 PM 28.6°F-1.9°C 22.9°F-5.1°C 79% 0.8 mph N1.3 kmh N 2.8 mph4.5 kmh 30.07 in1018.3 mb 0.00 in0.0 mm 0.00 in0.0 mm 0.00 in0.0 mm
03:00 PM 28.6°F-1.9°C 22.9°F-5.1°C 79% 2.0 mph N3.2 kmh N 3.9 mph6.3 kmh 30.07 in1018.3 mb 0.00 in0.0 mm 0.00 in0.0 mm 0.00 in0.0 mm
03:15 PM 28.6°F-1.9°C 22.9°F-5.1°C 79% 2.0 mph N3.2 kmh N 3.9 mph6.3 kmh 30.08 in1018.6 mb 0.00 in0.0 mm 0.00 in0.0 mm 0.00 in0.0 mm
03:30 PM 28.6°F-1.9°C 22.9°F-5.1°C 79% 0.8 mph N1.3 kmh N 3.9 mph6.3 kmh 30.08 in1018.6 mb 0.00 in0.0 mm 0.00 in0.0 mm 0.00 in0.0 mm
03:45 PM 28.6°F-1.9°C 22.9°F-5.1°C 79% 0.8 mph N1.3 kmh N 4.8 mph7.7 kmh 30.07 in1018.3 mb 0.00 in0.0 mm 0.00 in0.0 mm 0.00 in0.0 mm
04:00 PM 28.4°F-2.0°C 22.7°F-5.2°C 79% 0.8 mph N1.3 kmh N 3.9 mph6.3 kmh 30.08 in1018.6 mb 0.00 in0.0 mm 0.00 in0.0 mm 0.00 in0.0 mm
04:15 PM 28.8°F-1.8°C 23.1°F-4.9°C 79% 0.8 mph N1.3 kmh N 3.9 mph6.3 kmh 30.08 in1018.6 mb 0.00 in0.0 mm 0.00 in0.0 mm 0.00 in0.0 mm
04:30 PM 28.2°F-2.1°C 22.6°F-5.2°C 79% 0.8 mph N1.3 kmh N 2.8 mph4.5 kmh 30.08 in1018.6 mb 0.00 in0.0 mm 0.00 in0.0 mm 0.00 in0.0 mm
04:45 PM 28.2°F-2.1°C 23.2°F-4.9°C 81% Calm Calm 2.0 mph3.2 kmh 30.08 in1018.6 mb 0.00 in0.0 mm 0.00 in0.0 mm 0.00 in0.0 mm
05:00 PM 28.0°F-2.2°C 23.0°F-5.0°C 81% 0.8 mph N1.3 kmh N 2.8 mph4.5 kmh 30.08 in1018.6 mb 0.00 in0.0 mm 0.00 in0.0 mm 0.00 in0.0 mm
05:15 PM 28.0°F-2.2°C 23.0°F-5.0°C 81% Calm Calm 3.9 mph6.3 kmh 30.08 in1018.6 mb 0.00 in0.0 mm 0.00 in0.0 mm 0.00 in0.0 mm
05:30 PM 28.0°F-2.2°C 23.3°F-4.8°C 82% 0.8 mph N1.3 kmh N 2.8 mph4.5 kmh 30.07 in1018.3 mb 0.00 in0.0 mm 0.00 in0.0 mm 0.00 in0.0 mm
05:45 PM 27.9°F-2.3°C 23.1°F-4.9°C 82% 0.8 mph N1.3 kmh N 2.8 mph4.5 kmh 30.08 in1018.6 mb 0.00 in0.0 mm 0.00 in0.0 mm 0.00 in0.0 mm
06:00 PM 27.9°F-2.3°C 23.4°F-4.8°C 83% 0.8 mph N1.3 kmh N 4.8 mph7.7 kmh 30.08 in1018.6 mb 0.00 in0.0 mm 0.00 in0.0 mm 0.00 in0.0 mm
06:15 PM 27.9°F-2.3°C 23.4°F-4.8°C 83% Calm Calm 2.0 mph3.2 kmh 30.08 in1018.6 mb 0.00 in0.0 mm 0.00 in0.0 mm 0.00 in0.0 mm
06:30 PM 27.9°F-2.3°C 23.7°F-4.6°C 84% Calm Calm 2.8 mph4.5 kmh 30.08 in1018.6 mb 0.00 in0.0 mm 0.00 in0.0 mm 0.00 in0.0 mm
06:45 PM 27.9°F-2.3°C 23.7°F-4.6°C 84% Calm Calm 2.0 mph3.2 kmh 30.07 in1018.3 mb 0.00 in0.0 mm 0.00 in0.0 mm 0.00 in0.0 mm
07:00 PM 27.9°F-2.3°C 23.7°F-4.6°C 84% 0.8 mph N1.3 kmh N 4.8 mph7.7 kmh 30.07 in1018.3 mb 0.00 in0.0 mm 0.00 in0.0 mm 0.00 in0.0 mm
07:15 PM 27.9°F-2.3°C 24.0°F-4.4°C 85% 0.8 mph N1.3 kmh N 3.9 mph6.3 kmh 30.07 in1018.3 mb 0.00 in0.0 mm 0.00 in0.0 mm 0.00 in0.0 mm
07:30 PM 27.9°F-2.3°C 24.0°F-4.4°C 85% Calm Calm 2.0 mph3.2 kmh 30.08 in1018.6 mb 0.00 in0.0 mm 0.00 in0.0 mm 0.00 in0.0 mm
07:45 PM 27.9°F-2.3°C 24.0°F-4.4°C 85% Calm Calm 2.0 mph3.2 kmh 30.08 in1018.6 mb 0.00 in0.0 mm 0.00 in0.0 mm 0.00 in0.0 mm
08:00 PM 27.9°F-2.3°C 24.0°F-4.4°C 85% Calm Calm 2.0 mph3.2 kmh 30.08 in1018.6 mb 0.00 in0.0 mm 0.00 in0.0 mm 0.00 in0.0 mm
08:15 PM 27.9°F-2.3°C 24.2°F-4.3°C 86% Calm Calm 0.8 mph1.3 kmh 30.07 in1018.3 mb 0.00 in0.0 mm 0.00 in0.0 mm 0.00 in0.0 mm
08:30 PM 27.9°F-2.3°C 24.2°F-4.3°C 86% Calm Calm -- 30.07 in1018.3 mb 0.00 in0.0 mm 0.00 in0.0 mm 0.00 in0.0 mm
08:45 PM 27.5°F-2.5°C 23.9°F-4.5°C 86% Calm Calm 2.8 mph4.5 kmh 30.07 in1018.3 mb 0.00 in0.0 mm 0.00 in0.0 mm 0.00 in0.0 mm
09:00 PM 26.8°F-2.9°C 23.2°F-4.9°C 86% Calm Calm 2.0 mph3.2 kmh 30.07 in1018.3 mb 0.00 in0.0 mm 0.00 in0.0 mm 0.00 in0.0 mm
09:15 PM 26.2°F-3.2°C 22.4°F-5.3°C 85% Calm Calm 2.0 mph3.2 kmh 30.07 in1018.3 mb 0.00 in0.0 mm 0.00 in0.0 mm 0.00 in0.0 mm
09:30 PM 25.7°F-3.5°C 21.8°F-5.7°C 85% Calm Calm 2.0 mph3.2 kmh 30.07 in1018.3 mb 0.00 in0.0 mm 0.00 in0.0 mm 0.00 in0.0 mm
09:45 PM 25.3°F-3.7°C 21.8°F-5.7°C 86% Calm Calm 2.0 mph3.2 kmh 30.07 in1018.3 mb 0.00 in0.0 mm 0.00 in0.0 mm 0.00 in0.0 mm
10:00 PM 25.3°F-3.7°C 21.8°F-5.7°C 86% 0.8 mph N1.3 kmh N 3.9 mph6.3 kmh 30.06 in1017.9 mb 0.00 in0.0 mm 0.00 in0.0 mm 0.00 in0.0 mm
10:15 PM 25.2°F-3.8°C 21.6°F-5.8°C 86% 0.8 mph N1.3 kmh N 3.9 mph6.3 kmh 30.07 in1018.3 mb 0.00 in0.0 mm 0.00 in0.0 mm 0.00 in0.0 mm
10:30 PM 24.8°F-4.0°C 21.5°F-5.8°C 87% 0.8 mph N1.3 kmh N 3.9 mph6.3 kmh 30.07 in1018.3 mb 0.00 in0.0 mm 0.00 in0.0 mm 0.00 in0.0 mm
10:45 PM 24.4°F-4.2°C 21.2°F-6.0°C 87% 2.0 mph N3.2 kmh N 4.8 mph7.7 kmh 30.07 in1018.3 mb 0.00 in0.0 mm 0.00 in0.0 mm 0.00 in0.0 mm
11:00 PM 24.1°F-4.4°C 20.8°F-6.2°C 87% 0.8 mph N1.3 kmh N 3.9 mph6.3 kmh 30.07 in1018.3 mb 0.00 in0.0 mm 0.00 in0.0 mm 0.00 in0.0 mm
11:15 PM 23.9°F-4.5°C 20.6°F-6.3°C 87% 0.8 mph N1.3 kmh N 4.8 mph7.7 kmh 30.07 in1018.3 mb 0.00 in0.0 mm 0.00 in0.0 mm 0.00 in0.0 mm
11:30 PM 24.1°F-4.4°C 21.1°F-6.1°C 88% 0.8 mph N1.3 kmh N 5.6 mph9.0 kmh 30.07 in1018.3 mb 0.00 in0.0 mm 0.00 in0.0 mm 0.00 in0.0 mm
11:45 PM 24.1°F-4.4°C 21.1°F-6.1°C 88% Calm Calm 3.9 mph6.3 kmh 30.06 in1017.9 mb 0.00 in0.0 mm 0.00 in0.0 mm 0.00 in0.0 mm